createdAt,value
2019-03-03T00:02:07.350Z,1.80
2019-03-03T00:04:34.086Z,1.90
2019-03-03T00:07:00.814Z,1.90
2019-03-03T00:09:27.554Z,1.77
2019-03-03T00:11:54.265Z,1.70
2019-03-03T00:14:21.022Z,1.97
2019-03-03T00:16:47.754Z,2.00
2019-03-03T00:19:14.478Z,1.83
2019-03-03T00:21:41.210Z,1.70
2019-03-03T00:24:07.954Z,1.73
2019-03-03T00:26:34.680Z,1.60
2019-03-03T00:29:01.412Z,1.40
2019-03-03T00:31:34.114Z,2.00
2019-03-03T00:34:00.850Z,2.30
2019-03-03T00:36:47.189Z,2.13
2019-03-03T00:39:22.909Z,1.70
2019-03-03T00:42:02.633Z,2.00
2019-03-03T00:44:43.126Z,2.23
2019-03-03T00:47:13.438Z,2.10
2019-03-03T00:50:04.630Z,2.23
2019-03-03T00:52:41.351Z,2.60
2019-03-03T00:55:15.957Z,2.10
2019-03-03T00:57:51.706Z,2.40
2019-03-03T01:00:29.585Z,2.17
2019-03-03T01:03:15.962Z,2.60
2019-03-03T01:06:05.401Z,2.42
2019-03-03T01:08:37.750Z,2.27
2019-03-03T01:11:15.017Z,2.30
2019-03-03T01:13:47.718Z,2.37
2019-03-03T01:16:20.309Z,2.30
2019-03-03T01:18:52.491Z,2.87
2019-03-03T01:21:26.351Z,2.43
2019-03-03T01:24:03.762Z,4.30
2019-03-03T01:26:30.478Z,2.83
2019-03-03T01:28:57.225Z,2.37
2019-03-03T01:31:24.018Z,2.70
2019-03-03T01:33:50.769Z,2.40
2019-03-03T01:36:17.498Z,3.00
2019-03-03T01:38:44.237Z,2.13
2019-03-03T01:41:10.967Z,2.30
2019-03-03T01:43:37.699Z,3.03
2019-03-03T01:46:04.413Z,2.47
2019-03-03T01:48:31.183Z,2.43
2019-03-03T01:50:58.007Z,2.50
2019-03-03T01:53:24.750Z,2.90
2019-03-03T01:55:51.465Z,2.63
2019-03-03T01:58:18.215Z,2.03
2019-03-03T02:00:45.031Z,2.20
2019-03-03T02:03:11.758Z,2.73
2019-03-03T02:05:38.499Z,2.30
2019-03-03T02:08:05.223Z,2.50
2019-03-03T02:10:31.974Z,2.73
2019-03-03T02:12:58.691Z,2.77
2019-03-03T02:15:25.445Z,3.10
2019-03-03T02:17:52.159Z,2.43
2019-03-03T02:20:18.898Z,2.90
2019-03-03T02:22:45.634Z,3.00
2019-03-03T02:25:12.437Z,2.70
2019-03-03T02:27:39.201Z,2.60
2019-03-03T02:30:09.955Z,2.95
2019-03-03T02:32:36.681Z,2.97
2019-03-03T02:35:03.455Z,2.10
2019-03-03T02:37:30.171Z,2.00
2019-03-03T02:39:56.915Z,2.30
2019-03-03T02:42:23.618Z,2.40
2019-03-03T02:44:50.363Z,2.27
2019-03-03T02:47:17.094Z,2.70
2019-03-03T02:49:43.839Z,2.40
2019-03-03T02:52:10.591Z,2.30
2019-03-03T02:54:37.315Z,2.95
2019-03-03T02:57:04.039Z,2.87
2019-03-03T02:59:30.778Z,2.27
2019-03-03T03:02:01.003Z,2.20
2019-03-03T03:04:27.741Z,2.00
2019-03-03T03:07:00.878Z,2.10
2019-03-03T03:09:34.988Z,2.53
2019-03-03T03:12:21.340Z,2.80
2019-03-03T03:15:01.501Z,2.77
2019-03-03T03:17:36.656Z,2.93
2019-03-03T03:20:09.363Z,2.50
2019-03-03T03:22:44.729Z,3.07
2019-03-03T03:25:20.867Z,3.20
2019-03-03T03:27:53.524Z,2.60
2019-03-03T03:30:39.893Z,3.10
2019-03-03T03:33:15.387Z,2.75
2019-03-03T03:36:02.593Z,3.03
2019-03-03T03:38:36.215Z,3.00
2019-03-03T03:41:10.296Z,2.70
2019-03-03T03:43:47.770Z,2.67
2019-03-03T03:46:21.190Z,3.35
2019-03-03T03:48:58.181Z,2.63
2019-03-03T03:51:32.767Z,3.13
2019-03-03T03:54:13.789Z,3.30
2019-03-03T03:57:01.011Z,3.40
2019-03-03T03:59:42.832Z,3.20
2019-03-03T04:02:34.101Z,2.87
2019-03-03T04:05:09.797Z,3.43
2019-03-03T04:07:42.542Z,3.10
2019-03-03T04:10:16.334Z,3.23
2019-03-03T04:12:52.310Z,3.20
2019-03-03T04:15:27.534Z,3.33
2019-03-03T04:18:15.846Z,2.90
2019-03-03T04:20:56.335Z,3.63
2019-03-03T04:23:31.931Z,3.33
2019-03-03T04:26:13.262Z,3.23
2019-03-03T04:28:47.390Z,3.60
2019-03-03T04:31:33.767Z,3.87
2019-03-03T04:34:06.210Z,3.50
2019-03-03T04:36:48.025Z,3.73
2019-03-03T04:39:22.789Z,3.67
2019-03-03T04:41:55.393Z,3.97
2019-03-03T04:44:27.957Z,3.27
2019-03-03T04:47:04.938Z,3.20
2019-03-03T04:49:52.181Z,3.43
2019-03-03T04:52:23.877Z,3.37
2019-03-03T04:54:56.330Z,3.43
2019-03-03T04:57:28.914Z,3.30
2019-03-03T05:00:15.270Z,3.60
2019-03-03T05:03:01.646Z,3.30
2019-03-03T05:05:40.354Z,2.93
2019-03-03T05:08:25.781Z,3.50
2019-03-03T05:11:15.101Z,3.30
2019-03-03T05:13:49.643Z,3.00
2019-03-03T05:16:24.349Z,3.20
2019-03-03T05:18:56.890Z,2.57
2019-03-03T05:21:23.565Z,3.22
2019-03-03T05:23:50.303Z,3.10
2019-03-03T05:26:17.018Z,3.50
2019-03-03T05:28:43.762Z,3.03
2019-03-03T05:31:10.493Z,3.60
2019-03-03T05:33:37.226Z,3.30
2019-03-03T05:36:03.929Z,3.40
2019-03-03T05:38:30.718Z,3.97
2019-03-03T05:40:57.438Z,3.30
2019-03-03T05:43:24.187Z,3.90
2019-03-03T05:45:50.914Z,3.47
2019-03-03T05:48:17.653Z,3.43
2019-03-03T05:50:44.449Z,3.27
2019-03-03T05:53:11.178Z,3.40
2019-03-03T05:55:37.916Z,3.30
2019-03-03T05:58:04.646Z,3.77
2019-03-03T06:00:31.415Z,3.62
2019-03-03T06:02:58.130Z,3.58
2019-03-03T06:05:24.870Z,3.05
2019-03-03T06:07:51.606Z,3.72
2019-03-03T06:10:18.346Z,3.37
2019-03-03T06:12:45.058Z,3.57
2019-03-03T06:15:12.801Z,3.73
2019-03-03T06:17:39.058Z,4.23
2019-03-03T06:20:07.202Z,3.50
2019-03-03T06:22:33.914Z,3.27
2019-03-03T06:25:00.648Z,2.67
2019-03-03T06:27:27.366Z,3.40
2019-03-03T06:29:54.093Z,3.60
2019-03-03T06:32:20.820Z,2.53
2019-03-03T06:34:47.557Z,2.77
2019-03-03T06:37:14.310Z,3.13
2019-03-03T06:39:41.050Z,3.10
2019-03-03T06:42:07.789Z,2.83
2019-03-03T06:44:34.529Z,3.20
2019-03-03T06:47:01.245Z,3.90
2019-03-03T06:49:27.983Z,3.80
2019-03-03T06:51:54.698Z,3.80
2019-03-03T06:54:21.427Z,2.93
2019-03-03T06:56:48.142Z,2.80
2019-03-03T06:59:14.883Z,3.20
2019-03-03T07:01:41.709Z,3.10
2019-03-03T07:04:08.502Z,2.97
2019-03-03T07:06:35.214Z,3.00
2019-03-03T07:09:01.966Z,3.63
2019-03-03T07:11:28.702Z,2.70
2019-03-03T07:13:55.434Z,2.70
2019-03-03T07:16:23.166Z,3.23
2019-03-03T07:18:49.878Z,3.30
2019-03-03T07:21:16.625Z,2.80
2019-03-03T07:23:43.345Z,2.53
2019-03-03T07:26:10.082Z,2.53
2019-03-03T07:28:36.785Z,3.17
2019-03-03T07:31:03.608Z,2.70
2019-03-03T07:33:32.758Z,2.90
2019-03-03T07:35:59.506Z,2.53
2019-03-03T07:38:26.321Z,3.10
2019-03-03T07:40:53.009Z,3.17
2019-03-03T07:43:19.722Z,2.57
2019-03-03T07:45:46.457Z,2.73
2019-03-03T07:48:13.198Z,2.50
2019-03-03T07:50:40.422Z,3.00
2019-03-03T07:53:06.891Z,2.47
2019-03-03T07:55:33.629Z,2.37
2019-03-03T07:58:00.367Z,2.03
2019-03-03T08:00:27.098Z,2.50
2019-03-03T08:02:53.974Z,2.37
2019-03-03T08:05:21.177Z,2.43
2019-03-03T08:07:47.882Z,2.30
2019-03-03T08:10:14.633Z,1.97
2019-03-03T08:12:41.358Z,3.10
2019-03-03T08:15:08.168Z,2.30
2019-03-03T08:17:34.845Z,2.17
2019-03-03T08:20:02.248Z,2.10
2019-03-03T08:22:28.966Z,2.47
2019-03-03T08:24:55.714Z,2.60
2019-03-03T08:27:22.426Z,2.70
2019-03-03T08:29:49.166Z,2.00
2019-03-03T08:32:15.913Z,2.40
2019-03-03T08:34:42.642Z,3.10
2019-03-03T08:37:09.375Z,5.00
2019-03-03T08:39:36.211Z,4.03
2019-03-03T08:42:27.563Z,2.60
2019-03-03T08:45:15.908Z,2.20
2019-03-03T08:47:53.156Z,2.70
2019-03-03T08:50:21.502Z,3.30
2019-03-03T08:52:59.298Z,2.70
2019-03-03T08:55:31.816Z,2.70
2019-03-03T08:58:07.218Z,3.03
2019-03-03T09:00:39.402Z,2.83
2019-03-03T09:03:13.801Z,2.23
2019-03-03T09:05:55.139Z,1.90
2019-03-03T09:08:36.726Z,2.10
2019-03-03T09:11:09.280Z,3.40
2019-03-03T09:13:41.497Z,3.40
2019-03-03T09:16:26.850Z,3.00
2019-03-03T09:19:01.143Z,2.03
2019-03-03T09:21:40.574Z,2.37
2019-03-03T09:24:21.507Z,2.37
2019-03-03T09:27:02.009Z,1.87
2019-03-03T09:29:37.121Z,1.83
2019-03-03T09:32:09.983Z,2.30
2019-03-03T09:34:42.425Z,2.40
2019-03-03T09:37:16.814Z,1.70
2019-03-03T09:40:09.356Z,1.93
2019-03-03T09:42:52.386Z,1.90
2019-03-03T09:45:33.232Z,2.13
2019-03-03T09:48:07.878Z,1.80
2019-03-03T09:50:50.642Z,2.22
2019-03-03T09:53:40.884Z,2.20
2019-03-03T09:56:16.837Z,1.90
2019-03-03T09:58:59.545Z,2.50
2019-03-03T10:01:32.154Z,1.80
2019-03-03T10:04:10.118Z,1.60
2019-03-03T10:07:00.506Z,1.60
2019-03-03T10:09:46.517Z,2.00
2019-03-03T10:12:20.839Z,2.10
2019-03-03T10:14:53.390Z,2.17
2019-03-03T10:17:38.994Z,1.67
2019-03-03T10:20:17.185Z,1.87
2019-03-03T10:23:08.472Z,1.80
2019-03-03T10:25:56.710Z,2.00
2019-03-03T10:28:43.822Z,1.97
2019-03-03T10:31:28.162Z,1.97
2019-03-03T10:34:05.677Z,1.83
2019-03-03T10:36:39.757Z,1.90
2019-03-03T10:39:12.351Z,2.10
2019-03-03T10:41:55.665Z,1.40
2019-03-03T10:44:42.849Z,1.98
2019-03-03T10:47:15.421Z,1.97
2019-03-03T10:49:48.106Z,2.17
2019-03-03T10:52:24.590Z,2.10
2019-03-03T10:54:57.246Z,1.80
2019-03-03T10:57:38.957Z,1.80
2019-03-03T11:00:19.299Z,1.50
2019-03-03T11:03:10.650Z,1.63
2019-03-03T11:05:49.029Z,1.60
2019-03-03T11:08:39.346Z,2.20
2019-03-03T11:11:11.790Z,1.67
2019-03-03T11:14:01.602Z,1.87
2019-03-03T11:16:45.439Z,2.47
2019-03-03T11:19:36.790Z,2.07
2019-03-03T11:22:12.382Z,2.37
2019-03-03T11:24:49.158Z,1.50
2019-03-03T11:27:21.760Z,1.70
2019-03-03T11:29:59.050Z,1.87
2019-03-03T11:32:41.642Z,1.53
2019-03-03T11:35:14.234Z,1.37
2019-03-03T11:37:48.027Z,2.23
2019-03-03T11:40:36.250Z,1.40
2019-03-03T11:43:16.234Z,1.30
2019-03-03T11:45:53.502Z,1.77
2019-03-03T11:48:25.858Z,1.40
2019-03-03T11:51:00.451Z,1.70
2019-03-03T11:53:34.936Z,1.90
2019-03-03T11:56:07.462Z,1.70
2019-03-03T11:58:40.102Z,1.97
2019-03-03T12:01:15.973Z,2.43
2019-03-03T12:04:07.415Z,1.60
2019-03-03T12:06:54.714Z,2.50
2019-03-03T12:09:27.258Z,1.70
2019-03-03T12:12:11.570Z,1.80
2019-03-03T12:14:57.974Z,1.70
2019-03-03T12:17:38.518Z,1.43
2019-03-03T12:20:12.581Z,2.10
2019-03-03T12:23:01.969Z,1.50
2019-03-03T12:25:37.486Z,1.80
2019-03-03T12:28:29.914Z,1.57
2019-03-03T12:31:04.902Z,1.70
2019-03-03T12:33:43.385Z,1.80
2019-03-03T12:36:22.312Z,1.60
2019-03-03T12:38:56.871Z,2.15
2019-03-03T12:41:36.473Z,2.13
2019-03-03T12:44:09.475Z,1.90
2019-03-03T12:46:55.813Z,1.93
2019-03-03T12:49:42.182Z,2.10
2019-03-03T12:52:14.922Z,1.77
2019-03-03T12:55:01.285Z,2.20
2019-03-03T12:57:40.882Z,2.20
2019-03-03T13:00:16.441Z,1.90
2019-03-03T13:02:54.950Z,2.73
2019-03-03T13:05:41.363Z,1.97
2019-03-03T13:08:18.546Z,1.87
2019-03-03T13:10:55.315Z,2.00
2019-03-03T13:13:44.510Z,2.00
2019-03-03T13:16:23.026Z,2.13
2019-03-03T13:19:01.626Z,2.30
2019-03-03T13:21:49.982Z,1.70
2019-03-03T13:24:26.619Z,2.07
2019-03-03T13:27:03.398Z,2.10
2019-03-03T13:29:40.097Z,2.20
2019-03-03T13:32:20.530Z,1.50
2019-03-03T13:34:53.140Z,1.77
2019-03-03T13:37:32.350Z,1.80
2019-03-03T13:40:07.794Z,1.47
2019-03-03T13:42:46.551Z,1.80
2019-03-03T13:45:13.246Z,1.60
2019-03-03T13:47:39.959Z,1.52
2019-03-03T13:50:09.218Z,1.77
2019-03-03T13:52:35.934Z,1.97
2019-03-03T13:55:02.893Z,2.40
2019-03-03T13:57:29.605Z,2.00
2019-03-03T13:59:56.349Z,2.10
2019-03-03T14:02:23.062Z,2.00
2019-03-03T14:04:49.789Z,2.10
2019-03-03T14:07:16.517Z,1.70
2019-03-03T14:09:43.250Z,1.90
2019-03-03T14:12:10.022Z,2.27
2019-03-03T14:14:36.759Z,2.10
2019-03-03T14:17:03.518Z,1.70
2019-03-03T14:19:30.259Z,2.37
2019-03-03T14:21:56.979Z,1.87
2019-03-03T14:24:23.801Z,2.58
2019-03-03T14:26:50.519Z,2.23
2019-03-03T14:29:17.253Z,2.27
2019-03-03T14:31:43.971Z,2.10
2019-03-03T14:34:10.704Z,2.63
2019-03-03T14:36:37.438Z,1.75
2019-03-03T14:39:05.338Z,1.70
2019-03-03T14:41:32.069Z,2.03
2019-03-03T14:43:58.842Z,1.70
2019-03-03T14:46:25.593Z,1.53
2019-03-03T14:48:52.418Z,1.97
2019-03-03T14:51:19.154Z,1.87
2019-03-03T14:53:45.869Z,1.67
2019-03-03T14:56:12.655Z,2.10
2019-03-03T14:58:39.368Z,1.73
2019-03-03T15:01:06.142Z,1.50
2019-03-03T15:03:32.850Z,1.60
2019-03-03T15:05:59.630Z,1.87
2019-03-03T15:08:26.369Z,2.47
2019-03-03T15:10:53.101Z,1.90
2019-03-03T15:13:19.837Z,1.70
2019-03-03T15:15:46.597Z,1.83
2019-03-03T15:18:13.319Z,2.33
2019-03-03T15:20:40.057Z,2.13
2019-03-03T15:23:06.802Z,1.80
2019-03-03T15:25:33.561Z,2.03
2019-03-03T15:28:00.359Z,2.20
2019-03-03T15:30:27.093Z,2.20
2019-03-03T15:32:53.816Z,2.50
2019-03-03T15:35:20.598Z,2.20
2019-03-03T15:37:47.317Z,1.90
2019-03-03T15:40:14.993Z,2.73
2019-03-03T15:42:42.733Z,2.57
2019-03-03T15:45:11.630Z,3.30
2019-03-03T15:47:38.358Z,2.40
2019-03-03T15:50:05.406Z,2.03
2019-03-03T15:52:32.206Z,2.10
2019-03-03T15:54:58.930Z,2.03
2019-03-03T15:57:25.664Z,1.80
2019-03-03T15:59:52.406Z,2.30
2019-03-03T16:02:19.162Z,2.00
2019-03-03T16:04:45.975Z,2.40
2019-03-03T16:07:12.698Z,2.00
2019-03-03T16:09:39.570Z,1.90
2019-03-03T16:12:06.314Z,1.90
2019-03-03T16:14:33.130Z,1.73
2019-03-03T16:16:59.874Z,1.67
2019-03-03T16:19:26.590Z,1.90
2019-03-03T16:21:53.345Z,1.73
2019-03-03T16:24:20.106Z,2.80
2019-03-03T16:26:46.861Z,1.93
2019-03-03T16:29:13.589Z,2.30
2019-03-03T16:31:40.366Z,1.90
2019-03-03T16:34:07.077Z,2.30
2019-03-03T16:36:33.910Z,1.80
2019-03-03T16:39:00.630Z,1.80
2019-03-03T16:41:27.361Z,1.80
2019-03-03T16:43:54.078Z,1.83
2019-03-03T16:46:20.831Z,2.23
2019-03-03T16:48:47.557Z,1.60
2019-03-03T16:51:14.294Z,2.10
2019-03-03T16:53:41.046Z,2.10
2019-03-03T16:56:07.774Z,2.50
2019-03-03T16:58:34.495Z,2.30
2019-03-03T17:01:01.216Z,1.95
2019-03-03T17:03:27.954Z,2.23
2019-03-03T17:05:54.673Z,1.90
2019-03-03T17:08:21.410Z,2.13
2019-03-03T17:10:48.139Z,2.13
2019-03-03T17:13:14.898Z,2.23
2019-03-03T17:15:41.618Z,1.60
2019-03-03T17:18:08.354Z,1.80
2019-03-03T17:20:35.066Z,1.73
2019-03-03T17:23:01.810Z,2.00
2019-03-03T17:25:28.523Z,1.70
2019-03-03T17:27:55.249Z,2.47
2019-03-03T17:30:21.997Z,1.80
2019-03-03T17:32:48.837Z,1.90
2019-03-03T17:35:15.555Z,2.00
2019-03-03T17:37:42.301Z,2.20
2019-03-03T17:40:11.080Z,1.83
2019-03-03T17:42:37.817Z,1.53
2019-03-03T17:45:06.386Z,1.80
2019-03-03T17:47:33.118Z,1.83
2019-03-03T17:49:59.829Z,1.93
2019-03-03T17:52:26.566Z,1.87
2019-03-03T17:54:53.290Z,2.45
2019-03-03T17:57:20.271Z,1.57
2019-03-03T17:59:46.986Z,1.97
2019-03-03T18:02:13.730Z,1.80
2019-03-03T18:04:40.449Z,1.43
2019-03-03T18:07:07.192Z,2.03
2019-03-03T18:09:33.933Z,2.17
2019-03-03T18:12:00.666Z,2.27
2019-03-03T18:14:27.387Z,1.90
2019-03-03T18:16:54.097Z,1.90
2019-03-03T18:19:20.827Z,2.47
2019-03-03T18:21:47.717Z,2.00
2019-03-03T18:24:14.446Z,1.77
2019-03-03T18:26:41.166Z,1.77
2019-03-03T18:29:07.905Z,2.70
2019-03-03T18:31:34.610Z,1.97
2019-03-03T18:34:01.350Z,1.93
2019-03-03T18:36:28.446Z,1.60
2019-03-03T18:38:55.186Z,1.57
2019-03-03T18:41:21.901Z,1.43
2019-03-03T18:43:48.637Z,2.13
2019-03-03T18:46:15.377Z,2.30
2019-03-03T18:48:42.125Z,2.30
2019-03-03T18:51:08.834Z,2.27
2019-03-03T18:53:35.599Z,1.93
2019-03-03T18:56:02.318Z,2.17
2019-03-03T18:58:29.142Z,3.10
2019-03-03T19:00:56.173Z,1.90
2019-03-03T19:03:22.909Z,2.20
2019-03-03T19:05:55.737Z,2.30
2019-03-03T19:08:18.379Z,1.90
2019-03-03T19:10:45.189Z,2.40
2019-03-03T19:13:11.939Z,1.90
2019-03-03T19:15:38.774Z,2.20
2019-03-03T19:18:05.561Z,1.90
2019-03-03T19:20:32.291Z,1.87
2019-03-03T19:22:59.095Z,2.40
2019-03-03T19:25:25.825Z,2.10
2019-03-03T19:27:52.588Z,2.53
2019-03-03T19:30:20.878Z,2.23
2019-03-03T19:32:52.298Z,1.77
2019-03-03T19:35:19.034Z,2.10
2019-03-03T19:37:45.790Z,2.47
2019-03-03T19:40:12.526Z,2.23
2019-03-03T19:42:39.286Z,2.40
2019-03-03T19:45:10.902Z,2.57
2019-03-03T19:47:37.614Z,2.73
2019-03-03T19:50:04.997Z,1.93
2019-03-03T19:52:31.713Z,2.00
2019-03-03T19:54:58.458Z,1.93
2019-03-03T19:57:25.174Z,2.30
2019-03-03T19:59:51.942Z,2.20
2019-03-03T20:02:18.662Z,2.43
2019-03-03T20:04:45.405Z,2.60
2019-03-03T20:07:12.183Z,2.02
2019-03-03T20:09:38.906Z,2.20
2019-03-03T20:12:05.678Z,2.30
2019-03-03T20:14:32.429Z,3.00
2019-03-03T20:16:59.146Z,2.10
2019-03-03T20:19:25.886Z,2.40
2019-03-03T20:21:52.612Z,1.90
2019-03-03T20:24:19.386Z,2.00
2019-03-03T20:26:46.139Z,1.57
2019-03-03T20:29:12.950Z,1.87
2019-03-03T20:31:39.686Z,2.20
2019-03-03T20:34:06.418Z,2.10
2019-03-03T20:36:33.136Z,2.50
2019-03-03T20:38:59.882Z,2.67
2019-03-03T20:41:26.606Z,2.10
2019-03-03T20:43:53.429Z,2.27
2019-03-03T20:46:20.251Z,2.10
2019-03-03T20:48:46.898Z,2.20
2019-03-03T20:51:13.624Z,2.30
2019-03-03T20:53:40.358Z,2.13
2019-03-03T20:56:07.102Z,2.90
2019-03-03T20:58:33.855Z,3.00
2019-03-03T21:01:00.590Z,2.93
2019-03-03T21:03:27.342Z,2.50
2019-03-03T21:05:54.079Z,2.87
2019-03-03T21:08:20.796Z,2.10
2019-03-03T21:10:47.536Z,3.00
2019-03-03T21:13:14.250Z,2.50
2019-03-03T21:15:40.982Z,3.33
2019-03-03T21:18:07.725Z,3.77
2019-03-03T21:20:34.463Z,2.90
2019-03-03T21:23:01.181Z,2.50
2019-03-03T21:25:27.942Z,2.20
2019-03-03T21:27:54.655Z,2.25
2019-03-03T21:30:22.089Z,2.27
2019-03-03T21:32:48.821Z,2.80
2019-03-03T21:35:15.561Z,2.47
2019-03-03T21:37:42.293Z,2.60
2019-03-03T21:40:10.511Z,2.60
2019-03-03T21:42:37.918Z,2.00
2019-03-03T21:45:05.454Z,2.42
2019-03-03T21:47:32.170Z,3.03
2019-03-03T21:49:58.898Z,2.10
2019-03-03T21:52:25.614Z,2.43
2019-03-03T21:54:52.379Z,2.27
2019-03-03T21:57:19.778Z,2.52
2019-03-03T21:59:46.522Z,2.80
2019-03-03T22:02:13.249Z,2.40
2019-03-03T22:04:39.962Z,2.60
2019-03-03T22:07:06.700Z,2.07
2019-03-03T22:09:33.401Z,2.10
2019-03-03T22:12:00.154Z,2.03
2019-03-03T22:14:26.874Z,3.02
2019-03-03T22:16:53.614Z,2.63
2019-03-03T22:19:20.330Z,2.00
2019-03-03T22:21:47.061Z,1.93
2019-03-03T22:24:13.769Z,2.23
2019-03-03T22:26:40.626Z,3.00
2019-03-03T22:29:07.325Z,1.70
2019-03-03T22:31:34.081Z,2.55
2019-03-03T22:34:00.790Z,2.50
2019-03-03T22:36:27.534Z,2.30
2019-03-03T22:38:54.261Z,2.50
2019-03-03T22:41:20.986Z,2.10
2019-03-03T22:43:47.702Z,2.33
2019-03-03T22:46:14.438Z,2.00
2019-03-03T22:48:41.149Z,2.50
2019-03-03T22:51:07.887Z,2.33
2019-03-03T22:53:34.605Z,2.00
2019-03-03T22:56:01.345Z,2.17
2019-03-03T22:58:28.066Z,2.17
2019-03-03T23:00:59.138Z,2.30
2019-03-03T23:03:31.871Z,2.17
2019-03-03T23:06:09.697Z,2.67
2019-03-03T23:08:46.978Z,2.80
2019-03-03T23:11:30.410Z,2.83
2019-03-03T23:14:10.611Z,2.67
2019-03-03T23:16:54.019Z,2.13
2019-03-03T23:19:40.727Z,2.20
2019-03-03T23:22:16.766Z,2.70
2019-03-03T23:25:14.034Z,2.57
2019-03-03T23:27:40.779Z,2.20
2019-03-03T23:30:07.530Z,2.40
2019-03-03T23:32:34.271Z,2.50
2019-03-03T23:35:00.973Z,2.13
2019-03-03T23:37:27.714Z,2.20
2019-03-03T23:39:54.442Z,2.43
2019-03-03T23:42:21.170Z,2.30
2019-03-03T23:44:47.886Z,2.60
2019-03-03T23:47:14.626Z,2.90
2019-03-03T23:49:41.340Z,2.70
2019-03-03T23:52:08.077Z,2.90
2019-03-03T23:54:34.799Z,3.10
2019-03-03T23:57:01.546Z,2.57
2019-03-03T23:59:28.255Z,2.40
